Flugplatz Rinteln

Für EDVR sind keine METAR/TAF Berichte vorhanden.
Es werden die Flugwettermeldungen vom Flugplatz Buckeburg Airport in 11 km Entfernung angezeigt.

Bericht für ETHB

vom 23.02. um 23:20 UTC

Wind 10 kt aus 280°

Sichtweite 10 km oder mehr

Temperatur 4.0°C

Taupunkt 1.0°C

Luftfeuchtigkeit 81%

Luftdruck 1019 hPa

ETHB 232320Z 28010KT 9999 04/01 Q1019 BLU+
Keine Prognose (TAF) verfügbar.
Impressum